createdAt,value
2023-02-25T00:01:36.233Z,3.53
2023-02-25T00:04:02.715Z,3.70
2023-02-25T00:06:29.254Z,3.53
2023-02-25T00:08:56.004Z,3.45
2023-02-25T00:11:25.725Z,3.35
2023-02-25T00:13:52.658Z,3.29
2023-02-25T00:16:22.912Z,3.29
2023-02-25T00:18:58.437Z,3.05
2023-02-25T00:21:29.145Z,3.15
2023-02-25T00:24:00.114Z,3.03
2023-02-25T00:26:31.062Z,2.89
2023-02-25T00:28:58.001Z,3.08
2023-02-25T00:31:25.909Z,3.20
2023-02-25T00:33:53.590Z,3.27
2023-02-25T00:36:26.248Z,3.12
2023-02-25T00:38:57.139Z,3.08
2023-02-25T00:41:27.957Z,3.18
2023-02-25T00:44:00.645Z,3.18
2023-02-25T00:46:29.352Z,3.27
2023-02-25T00:48:55.925Z,3.23
2023-02-25T00:51:26.392Z,3.30
2023-02-25T00:53:55.748Z,3.20
2023-02-25T00:56:24.688Z,3.20
2023-02-25T00:58:53.050Z,3.14
2023-02-25T01:01:30.249Z,3.23
2023-02-25T01:03:58.324Z,3.10
2023-02-25T01:06:27.782Z,3.04
2023-02-25T01:08:54.876Z,3.05
2023-02-25T01:11:29.757Z,3.03
2023-02-25T01:14:03.944Z,2.96
2023-02-25T01:16:32.652Z,3.20
2023-02-25T01:19:05.936Z,3.20
2023-02-25T01:21:38.077Z,2.97
2023-02-25T01:24:19.632Z,2.92
2023-02-25T01:26:48.350Z,2.98
2023-02-25T01:29:19.045Z,2.99
2023-02-25T01:31:46.414Z,2.96
2023-02-25T01:34:17.607Z,2.94
2023-02-25T01:36:45.694Z,3.19
2023-02-25T01:39:15.837Z,3.03
2023-02-25T01:41:46.261Z,2.98
2023-02-25T01:44:17.683Z,3.13
2023-02-25T01:46:49.898Z,3.03
2023-02-25T01:49:29.959Z,2.93
2023-02-25T01:52:23.622Z,3.05
2023-02-25T01:54:58.135Z,3.08
2023-02-25T01:57:28.806Z,3.04
2023-02-25T01:59:55.598Z,3.03
2023-02-25T02:02:27.447Z,2.83
2023-02-25T02:04:56.008Z,3.10
2023-02-25T02:07:24.757Z,3.06
2023-02-25T02:09:58.290Z,3.11
2023-02-25T02:12:35.936Z,3.06
2023-02-25T02:15:10.950Z,2.96
2023-02-25T02:18:03.123Z,2.99
2023-02-25T02:21:10.365Z,2.96
2023-02-25T02:24:35.966Z,2.97
2023-02-25T02:27:10.683Z,2.76
2023-02-25T02:30:18.821Z,2.78
2023-02-25T02:33:17.501Z,2.72
2023-02-25T02:36:05.949Z,2.83
2023-02-25T02:39:18.140Z,2.82
2023-02-25T02:42:12.496Z,2.84
2023-02-25T02:45:01.509Z,2.94
2023-02-25T02:47:42.614Z,2.90
2023-02-25T02:50:29.443Z,2.93
2023-02-25T02:53:03.968Z,3.07
2023-02-25T02:55:41.082Z,3.06
2023-02-25T02:58:17.204Z,3.08
2023-02-25T03:00:50.433Z,2.90
2023-02-25T03:03:29.965Z,3.09
2023-02-25T03:05:56.458Z,2.88
2023-02-25T03:08:29.685Z,2.91
2023-02-25T03:10:56.411Z,3.05
2023-02-25T03:13:22.980Z,3.02
2023-02-25T03:15:52.595Z,3.09
2023-02-25T03:18:34.667Z,3.00
2023-02-25T03:21:12.786Z,3.09
2023-02-25T03:23:42.883Z,3.10
2023-02-25T03:26:23.144Z,3.20
2023-02-25T03:28:50.305Z,3.16
2023-02-25T03:31:41.036Z,3.10
2023-02-25T03:34:19.208Z,3.13
2023-02-25T03:36:59.740Z,3.16
2023-02-25T03:39:35.975Z,3.25
2023-02-25T03:42:05.777Z,3.24
2023-02-25T03:44:45.413Z,3.27
2023-02-25T03:47:14.184Z,3.23
2023-02-25T03:49:59.054Z,3.09
2023-02-25T03:52:27.949Z,3.18
2023-02-25T03:54:57.586Z,3.25
2023-02-25T03:57:33.640Z,3.23
2023-02-25T04:00:00.150Z,3.22
2023-02-25T04:02:33.628Z,3.23
2023-02-25T04:05:00.257Z,3.18
2023-02-25T04:07:27.083Z,3.23
2023-02-25T04:09:53.588Z,3.12
2023-02-25T04:12:20.096Z,3.14
2023-02-25T04:14:46.541Z,3.18
2023-02-25T04:17:12.986Z,3.09
2023-02-25T04:19:39.550Z,2.92
2023-02-25T04:22:08.021Z,2.95
2023-02-25T04:24:34.561Z,3.00
2023-02-25T04:27:02.464Z,3.03
2023-02-25T04:29:29.699Z,3.06
2023-02-25T04:31:56.823Z,3.03
2023-02-25T04:34:24.562Z,3.04
2023-02-25T04:36:51.938Z,3.13
2023-02-25T04:39:19.472Z,2.82
2023-02-25T04:41:46.010Z,2.88
2023-02-25T04:44:12.602Z,2.99
2023-02-25T04:46:43.099Z,3.07
2023-02-25T04:49:10.561Z,3.09
2023-02-25T04:51:39.263Z,2.87
2023-02-25T04:54:06.489Z,3.05
2023-02-25T04:56:32.975Z,3.06
2023-02-25T04:58:59.582Z,3.07
2023-02-25T05:01:26.160Z,2.93
2023-02-25T05:03:56.873Z,3.00
2023-02-25T05:06:25.804Z,2.93
2023-02-25T05:08:52.480Z,3.02
2023-02-25T05:11:20.416Z,3.11
2023-02-25T05:13:47.562Z,3.02
2023-02-25T05:16:16.952Z,2.94
2023-02-25T05:18:46.543Z,2.90
2023-02-25T05:21:17.787Z,2.80
2023-02-25T05:23:46.514Z,2.76
2023-02-25T05:26:16.353Z,2.66
2023-02-25T05:28:45.624Z,2.72
2023-02-25T05:31:13.099Z,2.78
2023-02-25T05:33:40.529Z,2.79
2023-02-25T05:36:13.156Z,2.82
2023-02-25T05:38:40.682Z,2.86
2023-02-25T05:41:09.742Z,2.87
2023-02-25T05:43:38.684Z,2.98
2023-02-25T05:46:11.687Z,3.22
2023-02-25T05:48:40.831Z,3.00
2023-02-25T05:51:13.026Z,2.97
2023-02-25T05:53:39.583Z,2.82
2023-02-25T05:56:09.668Z,2.84
2023-02-25T05:58:36.479Z,2.91
2023-02-25T06:01:15.856Z,2.95
2023-02-25T06:03:45.539Z,2.97
2023-02-25T06:06:15.319Z,2.92
2023-02-25T06:08:45.776Z,3.01
2023-02-25T06:11:18.674Z,3.01
2023-02-25T06:13:46.970Z,2.66
2023-02-25T06:16:14.625Z,2.67
2023-02-25T06:18:41.241Z,2.91
2023-02-25T06:21:11.203Z,2.85
2023-02-25T06:23:40.892Z,2.80
2023-02-25T06:26:09.946Z,2.84
2023-02-25T06:28:36.526Z,2.92
2023-02-25T06:31:06.490Z,2.81
2023-02-25T06:33:32.944Z,2.88
2023-02-25T06:35:59.440Z,2.94
2023-02-25T06:38:26.214Z,2.88
2023-02-25T06:40:52.825Z,2.99
2023-02-25T06:43:19.413Z,3.00
2023-02-25T06:45:46.013Z,2.90
2023-02-25T06:48:12.450Z,2.82
2023-02-25T06:50:40.738Z,2.99
2023-02-25T06:53:08.992Z,2.77
2023-02-25T06:55:38.542Z,2.74
2023-02-25T06:58:05.074Z,2.78
2023-02-25T07:00:31.688Z,2.79
2023-02-25T07:02:58.199Z,2.87
2023-02-25T07:05:24.738Z,2.73
2023-02-25T07:07:51.507Z,2.80
2023-02-25T07:10:17.995Z,2.84
2023-02-25T07:12:44.512Z,2.72
2023-02-25T07:15:11.179Z,2.78
2023-02-25T07:17:37.751Z,2.85
2023-02-25T07:20:04.663Z,2.72
2023-02-25T07:22:31.132Z,2.68
2023-02-25T07:24:57.665Z,2.81
2023-02-25T07:27:24.890Z,2.86
2023-02-25T07:29:51.406Z,2.85
2023-02-25T07:32:17.997Z,2.75
2023-02-25T07:34:44.678Z,2.88
2023-02-25T07:37:12.546Z,2.99
2023-02-25T07:39:39.074Z,2.89
2023-02-25T07:42:05.552Z,2.87
2023-02-25T07:44:32.011Z,2.85
2023-02-25T07:46:58.433Z,2.71
2023-02-25T07:49:24.889Z,2.72
2023-02-25T07:51:51.322Z,2.75
2023-02-25T07:54:21.014Z,2.89
2023-02-25T07:56:50.789Z,2.99
2023-02-25T07:59:18.832Z,2.98
2023-02-25T08:01:45.544Z,2.88
2023-02-25T08:04:12.154Z,2.82
2023-02-25T08:06:41.438Z,2.89
2023-02-25T08:09:12.154Z,2.89
2023-02-25T08:11:40.144Z,2.83
2023-02-25T08:14:07.125Z,2.81
2023-02-25T08:16:34.244Z,2.94
2023-02-25T08:19:01.826Z,3.01
2023-02-25T08:21:28.411Z,3.19
2023-02-25T08:23:54.975Z,3.25
2023-02-25T08:26:23.445Z,3.35
2023-02-25T08:28:51.572Z,3.46
2023-02-25T08:31:19.135Z,3.59
2023-02-25T08:33:49.322Z,3.64
2023-02-25T08:36:23.264Z,3.69
2023-02-25T08:38:51.697Z,3.73
2023-02-25T08:41:21.454Z,3.79
2023-02-25T08:43:56.672Z,3.86
2023-02-25T08:46:26.189Z,3.88
2023-02-25T08:48:54.438Z,3.87
2023-02-25T08:51:24.588Z,3.80
2023-02-25T08:53:52.180Z,3.75
2023-02-25T08:56:18.725Z,3.75
2023-02-25T08:58:45.367Z,3.61
2023-02-25T09:01:17.749Z,3.61
2023-02-25T09:03:54.169Z,3.62
2023-02-25T09:06:27.956Z,3.52
2023-02-25T09:08:56.634Z,3.55
2023-02-25T09:11:25.374Z,3.62
2023-02-25T09:13:54.591Z,3.67
2023-02-25T09:16:21.263Z,3.81
2023-02-25T09:18:50.317Z,3.59
2023-02-25T09:21:18.689Z,3.73
2023-02-25T09:23:46.826Z,3.67
2023-02-25T09:26:14.244Z,3.63
2023-02-25T09:28:40.766Z,3.49
2023-02-25T09:31:07.469Z,3.44
2023-02-25T09:33:36.451Z,3.44
2023-02-25T09:36:10.676Z,3.06
2023-02-25T09:38:39.360Z,3.39
2023-02-25T09:41:30.267Z,2.73
2023-02-25T09:44:15.267Z,2.73
2023-02-25T09:46:52.521Z,2.28
2023-02-25T09:49:58.259Z,2.29
2023-02-25T09:52:49.729Z,2.33
2023-02-25T09:55:23.846Z,2.49
2023-02-25T09:58:26.511Z,2.48
2023-02-25T10:01:06.036Z,2.59
2023-02-25T10:03:42.343Z,2.72
2023-02-25T10:06:24.648Z,2.88
2023-02-25T10:09:02.816Z,3.09
2023-02-25T10:11:46.180Z,3.24
2023-02-25T10:15:19.323Z,3.24
2023-02-25T10:18:13.905Z,3.23
2023-02-25T10:21:04.029Z,3.15
2023-02-25T10:23:42.544Z,3.18
2023-02-25T10:26:24.633Z,3.02
2023-02-25T10:29:00.306Z,3.12
2023-02-25T10:31:29.725Z,3.25
2023-02-25T10:34:03.948Z,3.44
2023-02-25T10:36:39.464Z,3.61
2023-02-25T10:39:06.308Z,3.67
2023-02-25T10:41:32.866Z,3.67
2023-02-25T10:43:59.337Z,3.80
2023-02-25T10:46:58.932Z,3.73
2023-02-25T10:49:28.750Z,3.90
2023-02-25T10:52:10.121Z,3.80
2023-02-25T10:54:53.194Z,3.60
2023-02-25T10:57:41.448Z,3.57
2023-02-25T11:00:28.973Z,3.59
2023-02-25T11:02:58.169Z,3.77
2023-02-25T11:05:42.062Z,4.08
2023-02-25T11:08:30.025Z,4.14
2023-02-25T11:11:21.842Z,4.41
2023-02-25T11:14:09.734Z,4.42
2023-02-25T11:16:40.343Z,4.11
2023-02-25T11:19:38.619Z,4.16
2023-02-25T11:22:18.243Z,4.42
2023-02-25T11:25:00.642Z,4.67
2023-02-25T11:27:41.600Z,4.68
2023-02-25T11:30:14.125Z,4.80
2023-02-25T11:32:48.921Z,4.80
2023-02-25T11:35:31.189Z,4.30
2023-02-25T11:38:12.282Z,4.01
2023-02-25T11:40:45.287Z,4.00
2023-02-25T11:46:24.997Z,4.33
2023-02-25T11:49:00.258Z,4.40
2023-02-25T11:51:47.006Z,4.59
2023-02-25T11:54:38.774Z,4.83
2023-02-25T11:57:14.678Z,4.59
2023-02-25T12:00:19.324Z,4.62
2023-02-25T12:03:13.325Z,4.43
2023-02-25T12:06:11.582Z,4.15
2023-02-25T12:08:59.683Z,4.00
2023-02-25T12:12:18.879Z,4.02
2023-02-25T12:15:23.932Z,4.24
2023-02-25T12:18:11.980Z,4.11
2023-02-25T12:21:16.694Z,4.17
2023-02-25T12:24:19.634Z,4.14
2023-02-25T12:27:21.803Z,3.99
2023-02-25T12:30:54.445Z,4.27
2023-02-25T12:34:11.298Z,4.20
2023-02-25T12:37:19.252Z,4.02
2023-02-25T12:40:38.270Z,3.43
2023-02-25T12:43:44.936Z,3.02
2023-02-25T12:46:27.634Z,3.05
2023-02-25T12:49:34.951Z,3.25
2023-02-25T12:52:42.575Z,3.68
2023-02-25T12:55:46.633Z,3.77
2023-02-25T12:58:30.316Z,3.67
2023-02-25T13:01:18.876Z,3.93
2023-02-25T13:04:42.496Z,3.74
2023-02-25T13:07:24.275Z,3.68
2023-02-25T13:10:20.177Z,3.07
2023-02-25T13:13:33.563Z,2.63
2023-02-25T13:16:31.818Z,2.97
2023-02-25T13:19:39.492Z,3.20
2023-02-25T13:22:43.278Z,3.04
2023-02-25T13:26:06.646Z,3.09
2023-02-25T13:29:12.793Z,3.23
2023-02-25T13:32:07.870Z,3.48
2023-02-25T13:34:52.036Z,3.55
2023-02-25T13:37:41.710Z,3.00
2023-02-25T13:40:37.258Z,2.93
2023-02-25T13:43:29.606Z,3.26
2023-02-25T13:46:37.695Z,3.27
2023-02-25T13:49:13.030Z,3.06
2023-02-25T13:52:09.507Z,3.10
2023-02-25T13:54:53.999Z,3.34
2023-02-25T13:58:02.933Z,3.12
2023-02-25T14:00:47.932Z,2.65
2023-02-25T14:03:53.799Z,2.60
2023-02-25T14:06:26.205Z,2.80
2023-02-25T14:09:21.925Z,2.68
2023-02-25T14:12:22.551Z,2.44
2023-02-25T14:15:19.951Z,2.87
2023-02-25T14:18:04.833Z,2.98
2023-02-25T14:20:44.094Z,2.60
2023-02-25T14:23:47.996Z,2.70
2023-02-25T14:26:35.632Z,2.95
2023-02-25T14:29:48.606Z,3.26
2023-02-25T14:32:47.600Z,3.38
2023-02-25T14:35:16.964Z,3.14
2023-02-25T14:38:07.410Z,3.13
2023-02-25T14:41:01.766Z,2.78
2023-02-25T14:43:33.790Z,2.92
2023-02-25T14:46:30.796Z,2.82
2023-02-25T14:49:38.288Z,2.55
2023-02-25T14:52:32.367Z,2.01
2023-02-25T14:55:29.241Z,2.22
2023-02-25T14:58:36.845Z,2.25
2023-02-25T15:01:39.832Z,2.67
2023-02-25T15:04:42.213Z,2.14
2023-02-25T15:07:29.944Z,2.52
2023-02-25T15:10:25.673Z,2.27
2023-02-25T15:14:04.318Z,2.36
2023-02-25T15:17:13.777Z,2.58
2023-02-25T15:20:38.666Z,2.38
2023-02-25T15:23:14.188Z,2.66
2023-02-25T15:26:21.763Z,2.51
2023-02-25T15:28:52.189Z,2.59
2023-02-25T15:31:33.773Z,2.41
2023-02-25T15:34:22.725Z,2.36
2023-02-25T15:36:51.783Z,2.33
2023-02-25T15:39:50.947Z,2.12
2023-02-25T15:42:49.650Z,2.18
2023-02-25T15:45:28.524Z,2.08
2023-02-25T15:48:06.993Z,2.01
2023-02-25T15:50:42.549Z,2.19
2023-02-25T15:53:20.853Z,2.05
2023-02-25T15:55:50.174Z,1.94
2023-02-25T15:58:25.546Z,2.22
2023-02-25T16:01:07.142Z,2.09
2023-02-25T16:03:36.411Z,1.82
2023-02-25T16:06:12.462Z,1.96
2023-02-25T16:08:49.344Z,2.31
2023-02-25T16:11:49.316Z,2.51
2023-02-25T16:14:26.145Z,2.09
2023-02-25T16:17:19.991Z,2.18
2023-02-25T16:19:59.110Z,1.67
2023-02-25T16:22:29.875Z,2.17
2023-02-25T16:25:01.622Z,2.06
2023-02-25T16:27:52.845Z,1.94
2023-02-25T16:30:44.434Z,2.40
2023-02-25T16:33:46.720Z,2.27
2023-02-25T16:36:39.578Z,2.05
2023-02-25T16:39:18.464Z,1.95
2023-02-25T16:41:45.341Z,1.63
2023-02-25T16:44:39.590Z,1.14
2023-02-25T16:47:30.502Z,1.22
2023-02-25T16:50:01.468Z,1.17
2023-02-25T16:52:40.274Z,0.85
2023-02-25T16:55:12.634Z,1.02
2023-02-25T16:57:39.482Z,0.96
2023-02-25T17:00:20.083Z,0.88
2023-02-25T17:02:52.532Z,1.02
2023-02-25T17:05:32.486Z,1.07
2023-02-25T17:08:14.664Z,1.05
2023-02-25T17:10:49.745Z,1.01
2023-02-25T17:13:26.257Z,0.91
2023-02-25T17:15:54.088Z,0.99
2023-02-25T17:18:53.411Z,0.93
2023-02-25T17:21:29.444Z,0.95
2023-02-25T17:24:00.259Z,0.91
2023-02-25T17:26:27.978Z,0.95
2023-02-25T17:29:00.236Z,0.87
2023-02-25T17:31:30.223Z,0.89
2023-02-25T17:34:01.091Z,0.81
2023-02-25T17:36:33.010Z,0.84
2023-02-25T17:39:20.618Z,0.67
2023-02-25T17:41:48.577Z,0.63
2023-02-25T17:44:37.566Z,0.66
2023-02-25T17:47:08.011Z,0.77
2023-02-25T17:49:37.583Z,0.79
2023-02-25T17:52:07.985Z,0.74
2023-02-25T17:54:38.090Z,0.81
2023-02-25T17:57:18.887Z,0.72
2023-02-25T18:00:00.331Z,0.70
2023-02-25T18:02:37.502Z,0.73
2023-02-25T18:05:12.852Z,0.72
2023-02-25T18:07:59.891Z,0.67
2023-02-25T18:10:26.270Z,0.65
2023-02-25T18:12:55.380Z,0.66
2023-02-25T18:15:30.831Z,0.55
2023-02-25T18:18:01.409Z,0.54
2023-02-25T18:20:38.304Z,0.44
2023-02-25T18:23:15.231Z,0.49
2023-02-25T18:25:45.252Z,0.39
2023-02-25T18:28:21.449Z,0.30
2023-02-25T18:30:50.644Z,0.21
2023-02-25T18:33:18.523Z,0.26
2023-02-25T18:35:48.080Z,0.09
2023-02-25T18:38:20.586Z,0.03
2023-02-25T18:40:49.970Z,-0.01
2023-02-25T18:43:19.933Z,-0.23
2023-02-25T18:45:47.216Z,-0.19
2023-02-25T18:48:14.051Z,-0.18
2023-02-25T18:50:44.269Z,-0.16
2023-02-25T18:53:25.507Z,-0.30
2023-02-25T18:55:54.303Z,-0.30
2023-02-25T18:58:21.765Z,-0.26
2023-02-25T19:00:53.624Z,-0.37
2023-02-25T19:03:33.655Z,-0.36
2023-02-25T19:06:00.935Z,-0.36
2023-02-25T19:08:27.650Z,-0.40
2023-02-25T19:10:54.468Z,-0.39
2023-02-25T19:13:33.431Z,-0.41
2023-02-25T19:16:00.238Z,-0.50
2023-02-25T19:18:26.792Z,-0.58
2023-02-25T19:20:53.316Z,-0.58
2023-02-25T19:23:20.592Z,-0.67
2023-02-25T19:25:54.979Z,-0.73
2023-02-25T19:28:21.750Z,-0.81
2023-02-25T19:30:48.818Z,-0.76
2023-02-25T19:33:15.705Z,-0.82
2023-02-25T19:35:43.894Z,-0.87
2023-02-25T19:38:17.839Z,-0.89
2023-02-25T19:40:46.488Z,-0.79
2023-02-25T19:43:13.757Z,-0.79
2023-02-25T19:45:41.440Z,-0.71
2023-02-25T19:48:08.576Z,-0.82
2023-02-25T19:50:36.893Z,-0.85
2023-02-25T19:53:05.647Z,-0.95
2023-02-25T19:55:33.223Z,-0.98
2023-02-25T19:57:59.762Z,-1.01
2023-02-25T20:00:26.876Z,-1.07
2023-02-25T20:02:53.955Z,-1.18
2023-02-25T20:05:22.603Z,-1.20
2023-02-25T20:07:49.634Z,-1.11
2023-02-25T20:10:19.917Z,-1.09
2023-02-25T20:12:47.290Z,-1.04
2023-02-25T20:15:15.510Z,-1.07
2023-02-25T20:17:45.102Z,-1.15
2023-02-25T20:20:14.562Z,-1.10
2023-02-25T20:22:41.998Z,-1.08
2023-02-25T20:25:10.394Z,-1.22
2023-02-25T20:27:39.590Z,-1.17
2023-02-25T20:30:07.338Z,-1.18
2023-02-25T20:32:34.741Z,-1.19
2023-02-25T20:35:02.179Z,-1.20
2023-02-25T20:37:38.895Z,-1.32
2023-02-25T20:40:08.252Z,-1.58
2023-02-25T20:42:35.329Z,-1.46
2023-02-25T20:45:02.384Z,-1.45
2023-02-25T20:47:34.960Z,-1.46
2023-02-25T20:50:02.484Z,-1.39
2023-02-25T20:52:29.166Z,-1.37
2023-02-25T20:54:56.285Z,-1.43
2023-02-25T20:57:26.580Z,-1.50
2023-02-25T20:59:54.248Z,-1.44
2023-02-25T21:02:22.122Z,-1.50
2023-02-25T21:04:49.058Z,-1.50
2023-02-25T21:07:15.958Z,-1.50
2023-02-25T21:09:42.447Z,-1.48
2023-02-25T21:12:09.383Z,-1.47
2023-02-25T21:14:35.953Z,-1.49
2023-02-25T21:17:02.885Z,-1.69
2023-02-25T21:19:29.461Z,-1.60
2023-02-25T21:21:56.327Z,-1.53
2023-02-25T21:24:23.536Z,-1.57
2023-02-25T21:26:50.086Z,-1.55
2023-02-25T21:29:16.644Z,-1.64
2023-02-25T21:31:43.826Z,-1.73
2023-02-25T21:34:13.912Z,-1.83
2023-02-25T21:36:41.454Z,-1.86
2023-02-25T21:39:09.630Z,-1.81
2023-02-25T21:41:44.269Z,-1.90
2023-02-25T21:44:12.295Z,-1.97
2023-02-25T21:46:39.470Z,-1.89
2023-02-25T21:49:06.044Z,-1.80
2023-02-25T21:51:32.526Z,-1.87
2023-02-25T21:54:01.278Z,-1.89
2023-02-25T21:56:29.706Z,-1.83
2023-02-25T21:59:03.196Z,-1.93
2023-02-25T22:01:34.356Z,-1.90
2023-02-25T22:04:01.586Z,-1.94
2023-02-25T22:06:28.654Z,-1.89
2023-02-25T22:08:55.672Z,-1.88
2023-02-25T22:11:35.284Z,-1.84
2023-02-25T22:14:05.536Z,-1.75
2023-02-25T22:16:33.445Z,-1.76
2023-02-25T22:19:00.454Z,-1.77
2023-02-25T22:21:32.789Z,-1.90
2023-02-25T22:24:03.339Z,-1.83
2023-02-25T22:26:33.867Z,-1.86
2023-02-25T22:29:06.605Z,-1.98
2023-02-25T22:31:34.860Z,-2.05
2023-02-25T22:34:02.819Z,-2.01
2023-02-25T22:36:29.296Z,-1.97
2023-02-25T22:38:56.535Z,-1.86
2023-02-25T22:41:25.789Z,-2.02
2023-02-25T22:43:52.884Z,-1.95
2023-02-25T22:46:27.943Z,-1.96
2023-02-25T22:48:55.812Z,-2.02
2023-02-25T22:51:25.484Z,-2.02
2023-02-25T22:53:53.240Z,-2.00
2023-02-25T22:56:20.618Z,-2.02
2023-02-25T22:58:47.457Z,-2.02
2023-02-25T23:01:19.242Z,-2.00
2023-02-25T23:03:47.865Z,-1.99
2023-02-25T23:06:17.753Z,-1.82
2023-02-25T23:08:44.877Z,-1.80
2023-02-25T23:11:16.825Z,-1.78
2023-02-25T23:13:47.414Z,-1.69
2023-02-25T23:16:21.003Z,-1.51
2023-02-25T23:18:49.048Z,-1.31
2023-02-25T23:21:18.929Z,-1.19
2023-02-25T23:23:51.810Z,-1.16
2023-02-25T23:26:25.934Z,-1.20
2023-02-25T23:28:58.559Z,-1.15
2023-02-25T23:31:30.081Z,-1.16
2023-02-25T23:34:03.165Z,-0.89
2023-02-25T23:36:30.214Z,-0.86
2023-02-25T23:39:01.076Z,-0.80
2023-02-25T23:41:29.400Z,-0.79
2023-02-25T23:44:00.446Z,-0.63
2023-02-25T23:46:30.449Z,-0.54
2023-02-25T23:49:00.301Z,-0.51
2023-02-25T23:51:28.254Z,-0.49
2023-02-25T23:53:58.695Z,-0.35
2023-02-25T23:56:29.177Z,-0.43
2023-02-25T23:58:56.262Z,-0.53
